createdAt,value
2022-12-04T00:00:51.810Z,57.37
2022-12-04T00:03:18.324Z,61.10
2022-12-04T00:05:44.803Z,59.38
2022-12-04T00:08:11.300Z,62.83
2022-12-04T00:10:43.381Z,58.28
2022-12-04T00:13:09.878Z,54.43
2022-12-04T00:15:41.477Z,62.35
2022-12-04T00:18:07.928Z,59.47
2022-12-04T00:20:34.704Z,63.63
2022-12-04T00:23:01.123Z,57.08
2022-12-04T00:25:27.517Z,65.73
2022-12-04T00:27:53.952Z,60.83
2022-12-04T00:30:20.650Z,62.78
2022-12-04T00:32:47.115Z,63.58
2022-12-04T00:35:13.555Z,58.30
2022-12-04T00:37:40.046Z,60.20
2022-12-04T00:40:07.582Z,56.95
2022-12-04T00:42:33.987Z,59.38
2022-12-04T00:45:00.406Z,61.75
2022-12-04T00:47:26.880Z,73.18
2022-12-04T00:49:53.664Z,57.90
2022-12-04T00:52:20.472Z,63.53
2022-12-04T00:54:46.921Z,60.75
2022-12-04T00:57:13.353Z,61.30
2022-12-04T00:59:39.839Z,58.40
2022-12-04T01:02:06.289Z,60.73
2022-12-04T01:04:32.721Z,61.95
2022-12-04T01:07:04.691Z,62.03
2022-12-04T01:09:32.509Z,64.30
2022-12-04T01:11:58.930Z,58.80
2022-12-04T01:14:25.566Z,57.27
2022-12-04T01:16:54.186Z,67.82
2022-12-04T01:19:20.739Z,60.80
2022-12-04T01:21:47.220Z,61.60
2022-12-04T01:24:13.682Z,63.10
2022-12-04T01:26:42.822Z,57.20
2022-12-04T01:29:09.273Z,58.97
2022-12-04T01:31:36.103Z,59.97
2022-12-04T01:34:02.651Z,61.20
2022-12-04T01:36:29.448Z,63.13
2022-12-04T01:38:56.571Z,54.57
2022-12-04T01:41:26.195Z,63.20
2022-12-04T01:44:13.079Z,67.10
2022-12-04T01:46:41.041Z,55.80
2022-12-04T01:49:12.643Z,61.42
2022-12-04T01:51:47.233Z,63.13
2022-12-04T01:54:35.816Z,60.95
2022-12-04T01:57:08.105Z,53.90
2022-12-04T01:59:44.772Z,61.65
2022-12-04T02:02:16.074Z,60.70
2022-12-04T02:04:43.618Z,58.50
2022-12-04T02:07:10.176Z,62.25
2022-12-04T02:09:39.488Z,61.50
2022-12-04T02:12:23.867Z,65.15
2022-12-04T02:15:14.488Z,60.60
2022-12-04T02:17:49.832Z,58.83
2022-12-04T02:20:39.263Z,66.32
2022-12-04T02:23:17.575Z,61.13
2022-12-04T02:26:05.770Z,71.65
2022-12-04T02:28:51.409Z,65.07
2022-12-04T02:31:27.073Z,55.67
2022-12-04T02:34:18.292Z,60.38
2022-12-04T02:36:54.720Z,61.53
2022-12-04T02:39:43.927Z,59.80
2022-12-04T02:42:31.501Z,63.45
2022-12-04T02:45:02.952Z,68.13
2022-12-04T02:47:32.271Z,60.60
2022-12-04T02:50:01.265Z,65.60
2022-12-04T02:52:33.430Z,63.92
2022-12-04T02:55:08.667Z,62.78
2022-12-04T02:57:40.875Z,62.33
2022-12-04T03:00:09.003Z,72.55
2022-12-04T03:02:44.935Z,61.53
2022-12-04T03:05:17.680Z,57.92
2022-12-04T03:07:49.924Z,58.03
2022-12-04T03:10:22.083Z,60.37
2022-12-04T03:12:57.929Z,64.88
2022-12-04T03:15:35.489Z,62.65
2022-12-04T03:18:05.493Z,54.17
2022-12-04T03:20:34.817Z,58.25
2022-12-04T03:23:14.557Z,63.50
2022-12-04T03:25:53.500Z,62.90
2022-12-04T03:28:31.396Z,58.42
2022-12-04T03:31:04.030Z,64.45
2022-12-04T03:33:39.152Z,64.22
2022-12-04T03:36:34.948Z,57.73
2022-12-04T03:39:26.642Z,63.85
2022-12-04T03:41:53.016Z,60.75
2022-12-04T03:44:35.794Z,63.55
2022-12-04T03:47:15.216Z,59.58
2022-12-04T03:49:41.640Z,62.80
2022-12-04T03:52:18.080Z,59.00
2022-12-04T03:54:50.284Z,62.30
2022-12-04T03:57:25.681Z,64.53
2022-12-04T04:00:00.296Z,61.50
2022-12-04T04:02:33.083Z,68.47
2022-12-04T04:05:01.386Z,64.80
2022-12-04T04:07:35.542Z,60.40
2022-12-04T04:10:07.576Z,64.32
2022-12-04T04:12:40.232Z,62.78
2022-12-04T04:15:32.646Z,62.57
2022-12-04T04:18:20.292Z,64.50
2022-12-04T04:21:17.965Z,61.03
2022-12-04T04:24:08.722Z,63.67
2022-12-04T04:26:40.393Z,63.42
2022-12-04T04:29:06.856Z,60.00
2022-12-04T04:31:43.657Z,69.30
2022-12-04T04:34:28.368Z,62.88
2022-12-04T04:37:13.980Z,56.80
2022-12-04T04:39:50.959Z,56.72
2022-12-04T04:42:24.712Z,61.33
2022-12-04T04:45:04.588Z,63.28
2022-12-04T04:47:41.612Z,62.15
2022-12-04T04:50:11.180Z,62.75
2022-12-04T04:52:42.005Z,59.47
2022-12-04T04:55:09.312Z,58.33
2022-12-04T04:57:36.731Z,57.25
2022-12-04T05:00:10.695Z,69.32
2022-12-04T05:02:37.675Z,62.55
2022-12-04T05:05:04.660Z,62.22
2022-12-04T05:07:31.159Z,70.13
2022-12-04T05:09:57.999Z,65.03
2022-12-04T05:12:24.697Z,61.35
2022-12-04T05:14:51.157Z,63.38
2022-12-04T05:17:17.690Z,66.78
2022-12-04T05:19:57.384Z,57.67
2022-12-04T05:22:31.626Z,61.25
2022-12-04T05:24:58.848Z,57.58
2022-12-04T05:27:26.653Z,61.85
2022-12-04T05:29:54.648Z,58.22
2022-12-04T05:32:23.040Z,61.07
2022-12-04T05:34:50.961Z,61.17
2022-12-04T05:37:17.710Z,58.78
2022-12-04T05:39:44.777Z,60.03
2022-12-04T05:42:11.273Z,60.72
2022-12-04T05:44:37.985Z,54.77
2022-12-04T05:47:04.628Z,62.05
2022-12-04T05:49:32.231Z,64.55
2022-12-04T05:51:58.988Z,57.33
2022-12-04T05:54:25.764Z,62.83
2022-12-04T05:56:52.268Z,58.50
2022-12-04T05:59:19.235Z,57.88
2022-12-04T06:01:45.950Z,58.47
2022-12-04T06:04:12.662Z,57.17
2022-12-04T06:06:39.385Z,62.75
2022-12-04T06:09:07.375Z,56.00
2022-12-04T06:11:36.427Z,60.00
2022-12-04T06:14:06.031Z,59.42
2022-12-04T06:16:41.786Z,58.33
2022-12-04T06:19:14.612Z,57.67
2022-12-04T06:21:45.039Z,54.23
2022-12-04T06:24:17.050Z,59.70
2022-12-04T06:27:11.096Z,56.00
2022-12-04T06:29:31.586Z,54.65
2022-12-04T06:31:58.333Z,54.08
2022-12-04T06:34:24.827Z,60.97
2022-12-04T06:36:51.234Z,56.78
2022-12-04T06:39:19.101Z,56.20
2022-12-04T06:41:47.411Z,56.05
2022-12-04T06:44:14.806Z,56.75
2022-12-04T06:46:46.506Z,60.77
2022-12-04T06:49:13.802Z,54.63
2022-12-04T06:51:40.862Z,56.90
2022-12-04T06:54:07.959Z,59.05
2022-12-04T06:56:35.224Z,58.38
2022-12-04T06:59:03.576Z,58.37
2022-12-04T07:01:32.395Z,54.15
2022-12-04T07:04:00.990Z,59.38
2022-12-04T07:06:29.952Z,54.15
2022-12-04T07:09:06.056Z,55.65
2022-12-04T07:11:33.724Z,51.63
2022-12-04T07:14:00.237Z,53.70
2022-12-04T07:16:28.238Z,60.28
2022-12-04T07:18:56.478Z,56.70
2022-12-04T07:21:29.384Z,60.22
2022-12-04T07:23:58.528Z,54.27
2022-12-04T07:26:26.488Z,61.25
2022-12-04T07:28:54.380Z,56.97
2022-12-04T07:31:23.537Z,56.83
2022-12-04T07:33:50.365Z,56.92
2022-12-04T07:36:21.103Z,55.20
2022-12-04T07:38:48.299Z,58.40
2022-12-04T07:41:15.143Z,58.08
2022-12-04T07:43:42.555Z,52.85
2022-12-04T07:46:13.215Z,52.03
2022-12-04T07:48:40.081Z,54.23
2022-12-04T07:51:09.474Z,56.88
2022-12-04T07:53:36.484Z,60.33
2022-12-04T07:56:04.663Z,55.10
2022-12-04T07:58:31.802Z,52.92
2022-12-04T08:01:18.630Z,54.90
2022-12-04T08:03:48.342Z,54.97
2022-12-04T08:06:17.134Z,57.90
2022-12-04T08:08:43.592Z,51.05
2022-12-04T08:11:13.056Z,47.88
2022-12-04T08:13:39.618Z,57.23
2022-12-04T08:16:08.144Z,53.92
2022-12-04T08:18:34.688Z,52.05
2022-12-04T08:21:09.756Z,55.38
2022-12-04T08:23:37.340Z,54.35
2022-12-04T08:26:05.040Z,52.83
2022-12-04T08:28:32.254Z,52.75
2022-12-04T08:31:09.286Z,55.78
2022-12-04T08:33:35.834Z,59.08
2022-12-04T08:36:05.787Z,55.90
2022-12-04T08:38:32.306Z,57.63
2022-12-04T08:41:04.155Z,55.92
2022-12-04T08:43:30.981Z,49.88
2022-12-04T08:45:59.255Z,52.67
2022-12-04T08:48:26.636Z,55.55
2022-12-04T08:50:53.560Z,53.67
2022-12-04T08:53:20.414Z,53.88
2022-12-04T08:55:46.851Z,75.95
2022-12-04T08:58:13.993Z,58.22
2022-12-04T09:00:40.899Z,60.15
2022-12-04T09:03:07.839Z,62.83
2022-12-04T09:05:34.300Z,56.90
2022-12-04T09:08:00.882Z,63.97
2022-12-04T09:10:27.411Z,63.35
2022-12-04T09:12:53.955Z,52.67
2022-12-04T09:15:20.475Z,53.97
2022-12-04T09:17:46.957Z,56.83
2022-12-04T09:20:14.957Z,49.72
2022-12-04T09:23:02.694Z,53.42
2022-12-04T09:25:27.928Z,50.38
2022-12-04T09:27:54.390Z,51.70
2022-12-04T09:30:20.825Z,47.33
2022-12-04T09:32:47.248Z,51.03
2022-12-04T09:35:13.735Z,44.85
2022-12-04T09:37:40.223Z,48.30
2022-12-04T09:40:07.736Z,48.50
2022-12-04T09:42:50.965Z,56.40
2022-12-04T09:45:20.415Z,49.88
2022-12-04T09:47:50.106Z,52.92
2022-12-04T09:50:40.995Z,59.78
2022-12-04T09:53:25.367Z,51.33
2022-12-04T09:55:56.317Z,60.28
2022-12-04T09:58:39.277Z,51.85
2022-12-04T10:01:05.900Z,49.97
2022-12-04T10:03:32.556Z,47.05
2022-12-04T10:06:18.610Z,51.63
2022-12-04T10:08:49.504Z,47.42
2022-12-04T10:11:32.799Z,50.28
2022-12-04T10:14:11.458Z,46.88
2022-12-04T10:16:45.187Z,45.03
2022-12-04T10:19:56.266Z,45.83
2022-12-04T10:22:58.130Z,40.45
2022-12-04T10:25:26.904Z,42.30
2022-12-04T10:28:03.475Z,36.72
2022-12-04T10:30:33.647Z,43.40
2022-12-04T10:33:11.257Z,42.33
2022-12-04T10:35:38.706Z,45.20
2022-12-04T10:38:13.169Z,38.72
2022-12-04T10:40:39.561Z,39.50
2022-12-04T10:43:18.156Z,35.80
2022-12-04T10:45:44.794Z,30.40
2022-12-04T10:48:26.838Z,31.48
2022-12-04T10:50:53.306Z,34.88
2022-12-04T10:53:24.876Z,33.15
2022-12-04T10:55:51.325Z,38.60
2022-12-04T10:58:20.490Z,34.60
2022-12-04T11:01:04.971Z,32.08
2022-12-04T11:03:32.353Z,32.90
2022-12-04T11:06:04.899Z,34.40
2022-12-04T11:08:37.277Z,31.08
2022-12-04T11:11:08.141Z,28.67
2022-12-04T11:13:35.015Z,29.33
2022-12-04T11:16:01.546Z,31.67
2022-12-04T11:18:33.678Z,25.25
2022-12-04T11:21:07.462Z,34.78
2022-12-04T11:23:43.320Z,26.77
2022-12-04T11:26:10.828Z,28.90
2022-12-04T11:28:42.401Z,28.73
2022-12-04T11:31:16.400Z,31.70
2022-12-04T11:33:56.705Z,28.35
2022-12-04T11:36:36.807Z,27.67
2022-12-04T11:39:24.311Z,78.25
2022-12-04T11:42:01.524Z,33.88
2022-12-04T11:44:32.384Z,27.35
2022-12-04T11:47:02.328Z,25.40
2022-12-04T11:49:30.782Z,26.10
2022-12-04T11:52:02.968Z,26.85
2022-12-04T11:54:39.382Z,22.20
2022-12-04T11:57:14.823Z,25.23
2022-12-04T12:00:04.949Z,22.45
2022-12-04T12:02:55.726Z,27.10
2022-12-04T12:05:33.018Z,25.08
2022-12-04T12:08:13.069Z,26.27
2022-12-04T12:10:55.865Z,24.02
2022-12-04T12:13:28.474Z,26.77
2022-12-04T12:16:07.230Z,21.90
2022-12-04T12:19:18.783Z,21.73
2022-12-04T12:22:03.462Z,21.30
2022-12-04T12:24:51.319Z,21.40
2022-12-04T12:27:36.171Z,20.80
2022-12-04T12:30:23.755Z,19.90
2022-12-04T12:33:18.292Z,22.25
2022-12-04T12:36:03.480Z,21.05
2022-12-04T12:38:37.516Z,19.73
2022-12-04T12:41:15.446Z,22.58
2022-12-04T12:43:48.294Z,25.50
2022-12-04T12:46:36.425Z,20.58
2022-12-04T12:49:09.647Z,21.48
2022-12-04T12:51:45.366Z,19.90
2022-12-04T12:54:15.960Z,20.00
2022-12-04T12:56:50.054Z,21.47
2022-12-04T12:59:22.609Z,20.20
2022-12-04T13:02:00.844Z,20.10
2022-12-04T13:04:50.667Z,22.45
2022-12-04T13:07:17.106Z,23.35
2022-12-04T13:10:15.707Z,21.90
2022-12-04T13:12:52.737Z,21.70
2022-12-04T13:15:22.374Z,18.98
2022-12-04T13:17:52.602Z,20.13
2022-12-04T13:20:34.011Z,23.02
2022-12-04T13:23:28.499Z,19.67
2022-12-04T13:26:13.636Z,20.58
2022-12-04T13:28:40.026Z,18.45
2022-12-04T13:31:39.919Z,24.13
2022-12-04T13:34:21.663Z,23.90
2022-12-04T13:37:25.648Z,22.13
2022-12-04T13:40:26.791Z,67.03
2022-12-04T13:42:53.472Z,42.67
2022-12-04T13:45:33.574Z,27.92
2022-12-04T13:48:03.271Z,57.08
2022-12-04T13:50:34.796Z,32.97
2022-12-04T13:53:01.831Z,28.83
2022-12-04T13:55:34.293Z,23.98
2022-12-04T13:58:03.797Z,20.67
2022-12-04T14:00:34.780Z,23.83
2022-12-04T14:03:05.841Z,21.53
2022-12-04T14:05:51.347Z,23.33
2022-12-04T14:08:25.409Z,21.50
2022-12-04T14:11:05.487Z,25.05
2022-12-04T14:13:43.318Z,20.27
2022-12-04T14:16:21.605Z,22.03
2022-12-04T14:18:57.108Z,19.95
2022-12-04T14:21:24.471Z,22.45
2022-12-04T14:23:52.310Z,24.35
2022-12-04T14:26:20.270Z,21.80
2022-12-04T14:28:46.828Z,21.73
2022-12-04T14:31:16.610Z,24.20
2022-12-04T14:33:56.334Z,25.20
2022-12-04T14:36:33.414Z,25.08
2022-12-04T14:39:02.449Z,26.83
2022-12-04T14:41:28.882Z,26.83
2022-12-04T14:43:57.120Z,26.27
2022-12-04T14:46:32.762Z,28.52
2022-12-04T14:49:16.473Z,28.70
2022-12-04T14:51:45.742Z,25.63
2022-12-04T14:54:38.062Z,23.33
2022-12-04T14:57:23.323Z,26.27
2022-12-04T14:59:52.576Z,27.80
2022-12-04T15:02:22.548Z,27.77
2022-12-04T15:04:50.865Z,23.80
2022-12-04T15:07:22.797Z,28.63
2022-12-04T15:10:16.853Z,28.10
2022-12-04T15:12:54.016Z,29.15
2022-12-04T15:15:25.715Z,29.88
2022-12-04T15:18:11.435Z,25.33
2022-12-04T15:20:55.903Z,28.73
2022-12-04T15:23:27.945Z,35.28
2022-12-04T15:25:57.466Z,29.63
2022-12-04T15:28:36.532Z,32.83
2022-12-04T15:31:06.409Z,29.83
2022-12-04T15:33:37.193Z,40.87
2022-12-04T15:36:08.902Z,35.55
2022-12-04T15:38:36.763Z,37.22
2022-12-04T15:41:03.289Z,40.17
2022-12-04T15:43:41.083Z,163.05
2022-12-04T15:46:21.201Z,116.80
2022-12-04T15:48:48.105Z,49.22
2022-12-04T15:51:16.480Z,42.17
2022-12-04T15:53:45.740Z,34.95
2022-12-04T15:56:21.583Z,41.88
2022-12-04T15:59:00.869Z,42.90
2022-12-04T16:01:28.210Z,40.38
2022-12-04T16:03:56.215Z,45.22
2022-12-04T16:06:25.692Z,40.70
2022-12-04T16:08:52.245Z,42.35
2022-12-04T16:11:21.651Z,44.43
2022-12-04T16:13:50.749Z,46.10
2022-12-04T16:16:22.249Z,41.78
2022-12-04T16:18:49.126Z,39.65
2022-12-04T16:21:18.247Z,45.72
2022-12-04T16:23:45.451Z,61.63
2022-12-04T16:26:17.403Z,43.10
2022-12-04T16:28:44.100Z,41.20
2022-12-04T16:31:12.589Z,41.08
2022-12-04T16:33:40.190Z,43.13
2022-12-04T16:36:06.998Z,39.23
2022-12-04T16:38:33.473Z,42.03
2022-12-04T16:40:59.943Z,46.65
2022-12-04T16:43:26.358Z,42.15
2022-12-04T16:45:54.341Z,42.95
2022-12-04T16:48:21.311Z,44.93
2022-12-04T16:50:48.060Z,65.78
2022-12-04T16:53:20.720Z,44.17
2022-12-04T16:55:49.730Z,46.80
2022-12-04T16:58:17.608Z,44.22
2022-12-04T17:00:50.154Z,42.33
2022-12-04T17:03:23.535Z,54.63
2022-12-04T17:05:50.503Z,48.67
2022-12-04T17:08:17.133Z,41.42
2022-12-04T17:10:43.683Z,48.63
2022-12-04T17:13:10.251Z,51.40
2022-12-04T17:15:36.795Z,49.95
2022-12-04T17:18:07.400Z,48.17
2022-12-04T17:20:40.849Z,46.28
2022-12-04T17:23:07.319Z,46.15
2022-12-04T17:25:33.796Z,46.00
2022-12-04T17:28:00.273Z,37.03
2022-12-04T17:30:30.196Z,50.53
2022-12-04T17:33:00.145Z,38.03
2022-12-04T17:35:26.864Z,66.22
2022-12-04T17:37:53.352Z,41.27
2022-12-04T17:40:20.006Z,50.97
2022-12-04T17:42:46.497Z,47.88
2022-12-04T17:45:14.342Z,41.53
2022-12-04T17:47:40.793Z,39.30
2022-12-04T17:50:08.121Z,42.23
2022-12-04T17:52:34.648Z,39.33
2022-12-04T17:55:01.087Z,39.25
2022-12-04T17:57:28.181Z,40.70
2022-12-04T17:59:56.080Z,38.45
2022-12-04T18:02:22.682Z,37.27
2022-12-04T18:04:49.202Z,37.30
2022-12-04T18:07:15.689Z,36.08
2022-12-04T18:09:42.175Z,42.20
2022-12-04T18:12:08.633Z,32.95
2022-12-04T18:14:35.196Z,29.57
2022-12-04T18:17:02.741Z,37.30
2022-12-04T18:19:29.952Z,40.40
2022-12-04T18:21:57.553Z,36.78
2022-12-04T18:24:25.479Z,39.63
2022-12-04T18:26:52.159Z,38.33
2022-12-04T18:29:22.905Z,35.83
2022-12-04T18:31:51.021Z,39.10
2022-12-04T18:34:18.465Z,36.95
2022-12-04T18:36:47.864Z,38.60
2022-12-04T18:39:23.825Z,40.50
2022-12-04T18:41:50.773Z,31.35
2022-12-04T18:44:17.785Z,33.55
2022-12-04T18:46:44.203Z,62.55
2022-12-04T18:49:11.601Z,64.22
2022-12-04T18:51:40.397Z,58.33
2022-12-04T18:54:11.510Z,71.85
2022-12-04T18:56:38.216Z,73.32
2022-12-04T18:59:08.580Z,42.60
2022-12-04T19:01:35.832Z,43.53
2022-12-04T19:04:05.272Z,55.73
2022-12-04T19:06:37.617Z,39.30
2022-12-04T19:09:07.253Z,37.58
2022-12-04T19:11:34.593Z,37.90
2022-12-04T19:14:04.310Z,34.22
2022-12-04T19:16:35.086Z,36.43
2022-12-04T19:19:01.637Z,33.75
2022-12-04T19:21:28.204Z,30.60
2022-12-04T19:23:58.975Z,37.15
2022-12-04T19:26:27.019Z,34.28
2022-12-04T19:28:54.883Z,58.20
2022-12-04T19:31:24.389Z,68.45
2022-12-04T19:33:52.866Z,46.83
2022-12-04T19:36:19.889Z,56.42
2022-12-04T19:38:46.715Z,43.67
2022-12-04T19:41:22.501Z,46.57
2022-12-04T19:43:51.343Z,59.03
2022-12-04T19:46:22.296Z,45.28
2022-12-04T19:48:50.134Z,44.92
2022-12-04T19:51:19.255Z,41.90
2022-12-04T19:53:46.804Z,40.50
2022-12-04T19:56:19.503Z,43.85
2022-12-04T19:58:46.368Z,42.80
2022-12-04T20:01:16.528Z,51.83
2022-12-04T20:03:43.560Z,43.92
2022-12-04T20:06:21.549Z,46.60
2022-12-04T20:08:56.948Z,48.40
2022-12-04T20:11:24.634Z,54.75
2022-12-04T20:13:55.525Z,47.60
2022-12-04T20:16:26.664Z,54.92
2022-12-04T20:18:53.769Z,44.77
2022-12-04T20:21:22.963Z,44.30
2022-12-04T20:23:51.162Z,44.75
2022-12-04T20:26:23.734Z,52.70
2022-12-04T20:28:51.445Z,42.50
2022-12-04T20:31:21.679Z,45.73
2022-12-04T20:33:50.832Z,48.38
2022-12-04T20:36:21.902Z,48.08
2022-12-04T20:38:49.916Z,49.35
2022-12-04T20:41:16.664Z,42.42
2022-12-04T20:43:44.104Z,46.80
2022-12-04T20:46:19.008Z,45.65
2022-12-04T20:48:49.694Z,41.42
2022-12-04T20:51:20.836Z,43.10
2022-12-04T20:53:48.485Z,46.58
2022-12-04T20:56:15.528Z,39.67
2022-12-04T20:58:42.049Z,40.75
2022-12-04T21:01:10.853Z,41.30
2022-12-04T21:03:37.775Z,40.42
2022-12-04T21:06:04.866Z,45.92
2022-12-04T21:08:51.132Z,45.37
2022-12-04T21:11:17.601Z,41.92
2022-12-04T21:14:02.580Z,44.78
2022-12-04T21:16:29.189Z,52.70
2022-12-04T21:18:55.730Z,44.60
2022-12-04T21:21:22.333Z,46.50
2022-12-04T21:23:48.960Z,43.78
2022-12-04T21:26:15.541Z,42.33
2022-12-04T21:28:42.497Z,52.95
2022-12-04T21:31:09.627Z,62.75
2022-12-04T21:33:36.105Z,69.60
2022-12-04T21:36:04.732Z,57.58
2022-12-04T21:38:39.225Z,50.42
2022-12-04T21:41:09.381Z,46.40
2022-12-04T21:43:36.864Z,52.50
2022-12-04T21:46:09.544Z,50.10
2022-12-04T21:48:37.120Z,48.75
2022-12-04T21:51:13.266Z,49.75
2022-12-04T21:53:54.622Z,41.85
2022-12-04T21:56:22.470Z,46.65
2022-12-04T21:58:49.121Z,45.07
2022-12-04T22:01:16.996Z,48.70
2022-12-04T22:03:44.006Z,44.88
2022-12-04T22:06:11.785Z,55.45
2022-12-04T22:08:40.869Z,42.15
2022-12-04T22:11:08.945Z,47.77
2022-12-04T22:13:36.511Z,47.13
2022-12-04T22:16:05.461Z,43.15
2022-12-04T22:18:33.786Z,43.92
2022-12-04T22:21:20.579Z,48.03
2022-12-04T22:23:47.199Z,48.23
2022-12-04T22:26:17.585Z,48.88
2022-12-04T22:28:44.116Z,44.33
2022-12-04T22:31:16.263Z,44.67
2022-12-04T22:33:45.870Z,43.58
2022-12-04T22:36:15.505Z,46.00
2022-12-04T22:39:05.979Z,43.83
2022-12-04T22:41:29.025Z,44.22
2022-12-04T22:43:55.564Z,43.13
2022-12-04T22:46:22.107Z,45.72
2022-12-04T22:48:48.648Z,44.37
2022-12-04T22:51:20.257Z,46.03
2022-12-04T22:53:52.861Z,42.50
2022-12-04T22:56:23.715Z,48.80
2022-12-04T22:58:50.942Z,48.45
2022-12-04T23:01:23.772Z,47.67
2022-12-04T23:03:51.380Z,38.35
2022-12-04T23:06:19.857Z,52.30
2022-12-04T23:08:46.797Z,43.78
2022-12-04T23:11:20.791Z,45.30
2022-12-04T23:13:52.187Z,44.37
2022-12-04T23:16:20.503Z,43.97
2022-12-04T23:18:47.859Z,46.25
2022-12-04T23:21:15.773Z,44.95
2022-12-04T23:23:44.011Z,48.63
2022-12-04T23:26:16.589Z,47.80
2022-12-04T23:28:43.421Z,45.38
2022-12-04T23:31:11.037Z,45.33
2022-12-04T23:33:38.827Z,40.78
2022-12-04T23:36:07.288Z,45.03
2022-12-04T23:38:36.115Z,48.00
2022-12-04T23:41:04.064Z,50.30
2022-12-04T23:43:31.099Z,44.38
2022-12-04T23:45:57.844Z,74.00
2022-12-04T23:48:25.084Z,61.45
2022-12-04T23:50:52.276Z,74.70
2022-12-04T23:53:19.310Z,85.50
2022-12-04T23:55:56.339Z,67.78
2022-12-04T23:58:22.902Z,50.88
